Time;durP1;ratioP1;P1;durP2;ratioP2;P2;SDS_P1;SDS_P2;PMS_P1;PMS_P2;Temp;Humidity;BMP_temperature;BMP_pressure;BME280_temperature;BME280_humidity;BME280_pressure;Samples;Min_cycle;Max_cycle;Signal;HPM_P1;HPM_P2
2021/09/22 00:00:35;;;;;;;7.12;6.42;;;;;;;14.01;47.77;101993.44;1769011;80;20986;-49
2021/09/22 00:03:02;;;;;;;9.85;6.65;;;;;;;13.99;47.78;101992.60;1771256;80;21097;-49
2021/09/22 00:05:29;;;;;;;14.47;7.22;;;;;;;14.00;47.99;101993.00;1768836;80;21488;-49
2021/09/22 00:07:58;;;;;;;7.12;6.30;;;;;;;14.01;47.72;101996.06;1765613;80;21013;-48
2021/09/22 00:10:25;;;;;;;7.53;6.12;;;;;;;14.03;47.77;101997.34;1766023;80;21021;-49
2021/09/22 00:12:52;;;;;;;8.60;6.20;;;;;;;14.01;47.76;101997.80;1768255;80;21021;-48
2021/09/22 00:15:22;;;;;;;7.22;6.35;;;;;;;13.98;47.69;101994.78;1781703;80;21046;-49
2021/09/22 00:17:49;;;;;;;8.15;5.85;;;;;;;13.96;47.60;101995.69;1776971;80;21025;-49
2021/09/22 00:20:22;;;;;;;7.60;5.78;;;;;;;13.92;47.56;102002.73;1765199;80;21009;-49
2021/09/22 00:22:47;;;;;;;8.00;6.50;;;;;;;13.86;47.71;101994.98;1773083;80;21006;-49
2021/09/22 00:25:16;;;;;;;6.42;5.83;;;;;;;13.82;47.98;101995.92;1762264;80;21026;-49
2021/09/22 00:27:43;;;;;;;8.05;5.78;;;;;;;13.82;48.20;101988.07;1771088;80;21461;-49
2021/09/22 00:30:11;;;;;;;7.30;6.03;;;;;;;13.80;48.11;101992.46;1768964;80;21029;-49
2021/09/22 00:32:39;;;;;;;6.80;5.60;;;;;;;13.76;48.11;101998.63;1771176;80;21089;-49
2021/09/22 00:35:08;;;;;;;7.08;6.37;;;;;;;13.73;48.23;101994.30;1765936;80;20997;-49
2021/09/22 00:37:37;;;;;;;6.28;5.67;;;;;;;13.70;48.16;101990.88;1765885;80;20994;-49
2021/09/22 00:40:05;;;;;;;6.12;5.53;;;;;;;13.67;48.23;101989.59;1775958;80;21037;-49
2021/09/22 00:42:32;;;;;;;7.67;6.17;;;;;;;13.64;48.21;101985.74;1767277;80;20986;-49
2021/09/22 00:45:03;;;;;;;8.38;5.97;;;;;;;13.64;48.27;101983.13;1767319;80;21037;-49
2021/09/22 00:47:30;;;;;;;9.15;6.12;;;;;;;13.65;48.36;101982.22;1766451;80;20969;-49
2021/09/22 00:49:59;;;;;;;7.28;6.58;;;;;;;13.63;48.34;101977.45;1766869;80;21014;-48
2021/09/22 00:52:27;;;;;;;5.97;5.37;;;;;;;13.59;48.59;101977.08;1769043;80;21010;-49
2021/09/22 00:54:54;;;;;;;7.12;5.97;;;;;;;13.59;48.54;101977.08;1776803;80;21012;-49
2021/09/22 00:57:21;;;;;;;6.40;5.78;;;;;;;13.57;48.57;101978.86;1766237;80;21032;-49
2021/09/22 00:59:48;;;;;;;6.45;5.78;;;;;;;13.57;48.72;101978.86;1770655;80;21010;-49
2021/09/22 01:02:16;;;;;;;7.20;5.85;;;;;;;13.58;48.71;101979.30;1772222;80;20977;-48
2021/09/22 01:04:43;;;;;;;7.45;5.90;;;;;;;13.58;48.65;101976.21;1768995;80;20994;-49
2021/09/22 01:07:12;;;;;;;6.53;5.92;;;;;;;13.59;48.73;101973.16;1769678;80;21462;-50
2021/09/22 01:09:39;;;;;;;6.50;5.90;;;;;;;13.61;48.78;101970.95;1769319;80;21003;-49
2021/09/22 01:12:08;;;;;;;6.10;5.58;;;;;;;13.64;48.75;101965.66;1779791;80;21045;-49
2021/09/22 01:14:36;;;;;;;6.33;5.35;;;;;;;13.68;48.76;101962.57;1770377;80;21454;-49
2021/09/22 01:17:04;;;;;;;6.67;5.50;;;;;;;13.69;48.72;101956.44;1769937;80;21044;-50
2021/09/22 01:19:32;;;;;;;6.15;5.58;;;;;;;13.71;48.85;101959.89;1769004;80;21045;-49
2021/09/22 01:22:00;;;;;;;6.47;5.75;;;;;;;13.70;48.74;101958.19;1768654;80;21009;-49
2021/09/22 01:24:29;;;;;;;12.85;6.33;;;;;;;13.69;48.79;101957.74;1766865;80;21041;-48
2021/09/22 01:26:59;;;;;;;7.72;6.20;;;;;;;13.69;48.97;101957.74;1768887;80;21474;-49
2021/09/22 01:29:27;;;;;;;5.62;5.08;;;;;;;13.69;48.86;101953.38;1770568;80;21561;-49
2021/09/22 01:31:55;;;;;;;5.72;5.15;;;;;;;13.69;49.06;101962.54;1747020;80;21006;-48
2021/09/22 01:34:22;;;;;;;7.72;5.58;;;;;;;13.70;49.19;101951.64;1766030;80;21477;-49
2021/09/22 01:37:00;;;;;;;7.95;5.95;;;;;;;13.72;49.21;101949.86;1730658;83;21090;-49
2021/09/22 01:39:41;;;;;;;8.10;6.22;;;;;;;13.74;49.35;101946.78;1726761;83;21011;-49
2021/09/22 01:42:10;;;;;;;6.97;6.00;;;;;;;13.77;49.35;101945.41;1700792;83;21027;-49
2021/09/22 01:44:38;;;;;;;10.58;7.22;;;;;;;13.81;49.33;101944.47;1722654;83;21574;-49
2021/09/22 01:47:10;;;;;;;8.23;6.67;;;;;;;13.83;49.10;101944.00;1723907;83;21502;-48
2021/09/22 01:49:41;;;;;;;7.10;6.40;;;;;;;13.83;49.23;101946.61;1727455;83;20998;-49
2021/09/22 01:52:10;;;;;;;8.38;6.50;;;;;;;13.81;49.20;101944.47;1729289;83;21046;-49
2021/09/22 01:54:41;;;;;;;6.35;5.75;;;;;;;13.80;49.07;101953.22;1643137;86;21063;-49
2021/09/22 01:57:09;;;;;;;6.30;5.47;;;;;;;13.78;49.14;101945.41;1610867;88;21011;-49
2021/09/22 01:59:38;;;;;;;6.33;5.17;;;;;;;13.76;49.06;101951.55;1605972;88;21046;-49
2021/09/22 02:02:09;;;;;;;6.17;5.58;;;;;;;13.75;48.97;101952.42;1611403;88;21031;-49
2021/09/22 02:04:54;;;;;;;7.37;5.50;;;;;;;13.72;48.80;101945.94;1611895;88;21030;-48
2021/09/22 02:07:22;;;;;;;6.65;6.05;;;;;;;13.65;48.75;101937.76;1645920;86;21050;-49
2021/09/22 02:09:51;;;;;;;7.25;5.37;;;;;;;13.60;48.84;101942.22;1646844;86;21604;-49
2021/09/22 02:12:18;;;;;;;6.08;5.47;;;;;;;13.58;49.02;101942.68;1648777;86;21597;-49
2021/09/22 02:14:46;;;;;;;6.15;5.53;;;;;;;13.57;49.05;101953.58;1648934;86;21097;-49
2021/09/22 02:17:15;;;;;;;7.35;6.20;;;;;;;13.55;49.31;101954.48;1646012;86;21445;-49
2021/09/22 02:19:45;;;;;;;6.78;6.00;;;;;;;13.52;49.24;101961.92;1646958;86;21074;-49
2021/09/22 02:22:16;;;;;;;6.55;5.22;;;;;;;13.50;49.26;101957.59;1595304;89;21017;-49
2021/09/22 02:24:50;;;;;;;6.40;5.37;;;;;;;13.46;49.28;101958.52;1568901;91;21581;-49
2021/09/22 02:27:19;;;;;;;6.45;5.55;;;;;;;13.42;49.41;101960.77;1596116;89;21067;-49
2021/09/22 02:29:48;;;;;;;6.30;5.75;;;;;;;13.38;49.49;101953.42;1572645;91;21071;-49
2021/09/22 02:32:16;;;;;;;6.83;6.12;;;;;;;13.36;49.49;101953.01;1603500;88;21079;-48
2021/09/22 02:34:44;;;;;;;5.90;5.37;;;;;;;13.32;49.57;101953.50;1611493;88;21030;-49
2021/09/22 02:37:14;;;;;;;6.53;5.90;;;;;;;13.33;49.53;101951.77;1583601;89;21622;-49
2021/09/22 02:39:44;;;;;;;6.03;5.42;;;;;;;13.30;49.49;101955.71;1583872;89;21136;-50
2021/09/22 02:42:11;;;;;;;6.30;5.62;;;;;;;13.29;49.61;101952.22;1600600;89;21107;-48
2021/09/22 02:44:40;;;;;;;6.40;5.80;;;;;;;13.26;49.58;101952.28;1600846;89;21071;-49
2021/09/22 02:47:07;;;;;;;6.80;6.10;;;;;;;13.22;49.72;101951.03;1597419;89;21132;-49
2021/09/22 02:49:36;;;;;;;5.95;5.17;;;;;;;13.20;49.81;101942.35;1598240;89;21635;-49
2021/09/22 02:52:06;;;;;;;8.55;6.25;;;;;;;13.17;49.75;101946.33;1654228;85;21550;-49
2021/09/22 02:54:34;;;;;;;7.00;6.30;;;;;;;13.11;49.91;101943.80;1683469;85;21554;-49
2021/09/22 02:57:08;;;;;;;5.47;5.05;;;;;;;13.09;50.07;101946.41;1625794;88;21014;-49
2021/09/22 02:59:35;;;;;;;6.45;5.67;;;;;;;13.08;50.07;101946.44;1657202;86;21087;-49
2021/09/22 03:02:02;;;;;;;6.17;5.47;;;;;;;13.08;50.03;101946.84;1662209;86;21026;-48
2021/09/22 03:04:29;;;;;;;6.10;5.47;;;;;;;13.05;50.02;101942.98;1664806;86;21147;-48
2021/09/22 03:06:58;;;;;;;6.12;5.60;;;;;;;13.04;50.00;101943.02;1664652;86;21010;-49
2021/09/22 03:09:27;;;;;;;6.28;5.55;;;;;;;13.03;49.94;101943.41;1664762;86;21053;-49
2021/09/22 03:11:56;;;;;;;7.42;5.65;;;;;;;13.02;50.08;101937.75;1664747;86;21552;-49
2021/09/22 03:14:25;;;;;;;9.28;6.40;;;;;;;13.00;50.05;101933.45;1664587;86;21013;-49
2021/09/22 03:16:53;;;;;;;8.35;6.40;;;;;;;13.02;50.31;101932.52;1664846;86;21065;-49
2021/09/22 03:19:22;;;;;;;11.48;6.03;;;;;;;13.04;50.39;101932.09;1664609;86;21068;-48
2021/09/22 03:21:51;;;;;;;6.53;5.50;;;;;;;13.06;50.18;101933.40;1658700;86;21065;-49
2021/09/22 03:24:22;;;;;;;11.08;5.55;;;;;;;13.04;50.04;101935.17;1710548;84;21062;-49
2021/09/22 03:26:49;;;;;;;6.00;5.40;;;;;;;12.99;50.16;101936.94;1716462;83;20998;-49
2021/09/22 03:29:16;;;;;;;7.95;5.17;;;;;;;12.96;50.12;101931.30;1720002;83;21081;-49
2021/09/22 03:31:46;;;;;;;7.30;5.78;;;;;;;12.93;50.16;101937.88;1720065;83;21640;-49
2021/09/22 03:34:13;;;;;;;5.75;5.22;;;;;;;12.88;50.29;101937.06;1720298;83;21517;-49
2021/09/22 03:36:42;;;;;;;5.90;5.30;;;;;;;12.86;50.50;101930.12;1720302;83;21096;-49
2021/09/22 03:39:09;;;;;;;6.10;5.40;;;;;;;12.84;50.61;101937.11;1720105;83;21089;-48
2021/09/22 03:41:37;;;;;;;6.83;4.95;;;;;;;12.84;50.62;101930.58;1720169;83;21612;-49
2021/09/22 03:44:05;;;;;;;7.58;5.50;;;;;;;12.82;50.58;101926.69;1720130;83;21081;-49
2021/09/22 03:46:32;;;;;;;7.33;5.58;;;;;;;12.81;50.67;101924.98;1720328;83;20989;-49
2021/09/22 03:49:01;;;;;;;6.08;5.05;;;;;;;12.81;50.68;101924.98;1720011;83;21550;-48
2021/09/22 03:51:28;;;;;;;5.72;5.12;;;;;;;12.81;50.66;101927.59;1720358;83;21041;-49
2021/09/22 03:53:55;;;;;;;6.37;5.35;;;;;;;12.81;50.73;101928.90;1756865;80;21041;-49
2021/09/22 03:56:22;;;;;;;5.40;4.80;;;;;;;12.82;50.68;101924.08;1785219;80;21036;-49
2021/09/22 03:58:51;;;;;;;5.80;5.20;;;;;;;12.82;50.63;101930.61;1779793;80;21525;-50
2021/09/22 04:01:19;;;;;;;5.30;4.80;;;;;;;12.82;50.73;101923.20;1779448;80;21008;-49
2021/09/22 04:03:48;;;;;;;5.37;4.55;;;;;;;12.82;50.58;101924.08;1777388;80;21081;-49
2021/09/22 04:06:16;;;;;;;4.78;4.30;;;;;;;12.81;50.67;101921.06;1776458;80;20981;-49
2021/09/22 04:08:42;;;;;;;5.47;4.60;;;;;;;12.83;50.75;101917.12;1777347;80;21002;-49
2021/09/22 04:11:11;;;;;;;6.42;4.83;;;;;;;12.84;50.76;101915.78;1786777;80;21021;-49
2021/09/22 04:13:40;;;;;;;6.85;4.45;;;;;;;12.86;50.76;101916.62;1777298;80;21021;-49
2021/09/22 04:16:10;;;;;;;5.92;4.40;;;;;;;12.87;50.69;101913.14;1779569;80;21505;-49
2021/09/22 04:18:37;;;;;;;4.47;4.03;;;;;;;12.88;50.71;101917.94;1776231;80;21033;-49
2021/09/22 04:21:04;;;;;;;4.70;4.10;;;;;;;12.91;50.79;101917.87;1776494;80;21458;-49
2021/09/22 04:23:31;;;;;;;6.33;4.17;;;;;;;12.94;50.92;101912.16;1790392;80;20981;-49
2021/09/22 04:26:00;;;;;;;7.53;4.10;;;;;;;12.99;50.81;101911.67;1772882;80;21049;-49
2021/09/22 04:28:27;;;;;;;6.30;4.42;;;;;;;13.05;50.75;101911.63;1765997;80;20974;-49
2021/09/22 04:31:12;;;;;;;4.58;4.10;;;;;;;13.08;50.65;101916.79;1765619;80;21501;-49
2021/09/22 04:33:58;;;;;;;4.67;4.25;;;;;;;13.11;50.71;101912.44;1765706;80;21053;-49
2021/09/22 04:36:45;;;;;;;5.97;4.50;;;;;;;13.14;50.71;101904.55;1765961;80;21004;-49
2021/09/22 04:39:32;;;;;;;6.92;4.90;;;;;;;13.19;50.77;101901.44;1767561;80;21034;-49
2021/09/22 04:42:18;;;;;;;5.72;4.70;;;;;;;13.20;50.66;101900.53;1768917;80;21504;-49
2021/09/22 04:45:05;;;;;;;6.53;4.65;;;;;;;13.23;50.84;101900.50;1769200;80;21037;-50
2021/09/22 04:47:50;;;;;;;9.23;5.25;;;;;;;13.26;50.78;101895.22;1769170;80;20963;-49
2021/09/22 04:50:36;;;;;;;10.08;6.50;;;;;;;13.28;50.81;101893.00;1768964;80;21022;-51
2021/09/22 04:53:22;;;;;;;11.15;6.37;;;;;;;13.32;50.86;101889.89;1768978;80;21076;-49
2021/09/22 04:56:03;;;;;;;8.43;5.70;;;;;;;13.35;50.79;101889.43;1728919;83;21048;-49
2021/09/22 04:58:48;;;;;;;10.58;6.42;;;;;;;13.41;50.74;101887.16;1729732;83;21009;-48
2021/09/22 05:01:28;;;;;;;8.58;6.12;;;;;;;13.48;50.80;101883.53;1700241;83;21038;-49
2021/09/22 05:04:06;;;;;;;6.97;5.75;;;;;;;13.56;50.83;101886.92;1639742;87;21105;-48
2021/09/22 05:06:52;;;;;;;9.68;5.90;;;;;;;13.61;50.66;101880.72;1639376;87;21058;-50
2021/09/22 05:09:38;;;;;;;5.87;5.08;;;;;;;13.67;50.75;101879.31;1639892;87;21090;-50
2021/09/22 05:12:25;;;;;;;8.30;5.20;;;;;;;13.73;50.66;101880.95;1639727;87;21059;-50
2021/09/22 05:15:10;;;;;;;6.53;5.50;;;;;;;13.79;50.79;101880.84;1630132;87;21105;-50
2021/09/22 05:17:58;;;;;;;6.58;5.03;;;;;;;13.84;50.78;101881.64;1636873;87;21122;-51
2021/09/22 05:20:45;;;;;;;5.05;4.53;;;;;;;13.88;50.97;101889.42;1638052;87;21067;-50
2021/09/22 05:23:31;;;;;;;5.78;5.28;;;;;;;13.92;51.14;101882.38;1639099;87;21035;-49
2021/09/22 05:26:16;;;;;;;7.75;5.05;;;;;;;13.98;51.03;101881.39;1635474;87;21175;-50
2021/09/22 05:29:01;;;;;;;5.60;4.83;;;;;;;14.01;50.69;101875.67;1637107;87;21046;-50
2021/09/22 05:31:47;;;;;;;10.48;5.62;;;;;;;14.03;50.75;101877.82;1644878;86;21030;-50
2021/09/22 05:34:32;;;;;;;6.05;4.97;;;;;;;14.05;50.70;101875.16;1650946;86;21015;-46
2021/09/22 05:37:19;;;;;;;8.08;5.70;;;;;;;14.09;50.51;101875.09;1656913;85;21058;-49
2021/09/22 05:40:09;;;;;;;7.03;5.15;;;;;;;14.13;50.60;101863.67;1685270;80;21046;-49
2021/09/22 05:42:55;;;;;;;7.47;5.30;;;;;;;14.16;50.54;101866.21;1768387;80;21018;-49
2021/09/22 05:45:40;;;;;;;5.33;4.70;;;;;;;14.20;50.56;101866.57;1770595;80;21358;-49
2021/09/22 05:48:26;;;;;;;5.72;4.67;;;;;;;14.20;50.57;101856.10;1779981;80;21002;-49
2021/09/22 05:51:11;;;;;;;5.15;4.60;;;;;;;14.22;50.70;101852.17;1766019;80;20970;-49
2021/09/22 05:53:59;;;;;;;4.80;4.00;;;;;;;14.25;50.69;101850.78;1765799;80;21045;-49
2021/09/22 05:56:45;;;;;;;4.50;4.10;;;;;;;14.29;50.73;101851.17;1770153;80;20970;-48
2021/09/22 05:59:31;;;;;;;4.33;3.92;;;;;;;14.32;50.46;101850.66;1762126;80;21014;-50
2021/09/22 06:02:18;;;;;;;4.25;3.85;;;;;;;14.35;50.45;101853.23;1756256;80;20986;-49
2021/09/22 06:05:06;;;;;;;8.58;4.55;;;;;;;14.41;50.46;101850.48;1769999;80;21026;-50
2021/09/22 06:07:53;;;;;;;7.58;4.47;;;;;;;14.46;50.41;101855.20;1774397;80;21001;-50
2021/09/22 06:10:38;;;;;;;6.45;4.00;;;;;;;14.52;50.51;101855.07;1782384;80;21030;-49
2021/09/22 06:13:16;;;;;;;5.20;4.55;;;;;;;14.58;50.26;101856.69;1729597;83;21042;-50
2021/09/22 06:15:43;;;;;;;5.37;4.87;;;;;;;14.63;50.14;101851.76;1729750;83;21481;-46
2021/09/22 06:18:11;;;;;;;4.80;4.20;;;;;;;14.67;50.11;101849.48;1720275;83;21021;-50
2021/09/22 06:20:37;;;;;;;4.60;3.83;;;;;;;14.68;50.10;101845.99;1718704;83;21041;-49
2021/09/22 06:23:04;;;;;;;5.78;4.10;;;;;;;14.69;50.12;101845.08;1730020;83;21132;-47
2021/09/22 06:25:32;;;;;;;4.20;3.80;;;;;;;14.71;50.20;101849.00;1729850;83;21061;-50
2021/09/22 06:28:00;;;;;;;5.22;3.85;;;;;;;14.74;50.27;101848.05;1729923;83;21025;-49
2021/09/22 06:30:27;;;;;;;5.05;4.03;;;;;;;14.76;50.32;101845.81;1729708;83;21089;-46
2021/09/22 06:32:57;;;;;;;8.88;4.47;;;;;;;14.80;50.41;101852.72;1729763;83;21540;-49
2021/09/22 06:35:28;;;;;;;;;;;;;;;14.84;50.47;101850.91;1728874;83;21031;-49
2021/09/22 06:38:00;;;;;;;6.17;4.40;;;;;;;14.91;50.45;101848.55;1699786;84;20101;-50
2021/09/22 06:40:29;;;;;;;7.15;4.60;;;;;;;14.97;50.28;101849.72;1680247;84;21079;-51
2021/09/22 06:42:58;;;;;;;6.65;4.83;;;;;;;15.06;50.35;101853.46;1702084;84;21632;-51
2021/09/22 06:45:26;;;;;;;6.05;4.55;;;;;;;15.13;50.04;101853.72;1698573;84;21565;-50
2021/09/22 06:47:53;;;;;;;5.70;3.98;;;;;;;15.17;49.81;101851.44;1702265;84;21014;-50
2021/09/22 06:50:20;;;;;;;6.87;4.47;;;;;;;15.19;49.89;101861.44;1702025;84;21034;-50
2021/09/22 06:52:47;;;;;;;4.72;4.30;;;;;;;15.22;49.93;101863.56;1702199;84;21030;-53
2021/09/22 06:55:14;;;;;;;6.75;4.25;;;;;;;15.25;49.66;101870.50;1701868;84;21022;-49
2021/09/22 06:57:43;;;;;;;6.05;4.20;;;;;;;15.27;49.59;101867.40;1702182;84;21042;-50
2021/09/22 07:00:13;;;;;;;6.03;3.65;;;;;;;15.31;49.52;101865.11;1701348;84;20954;-50
2021/09/22 07:02:40;;;;;;;4.58;3.95;;;;;;;15.32;49.31;101862.89;1702254;84;21513;-50
2021/09/22 07:05:09;;;;;;;7.05;5.37;;;;;;;15.35;49.09;101870.70;1702255;84;21538;-50
2021/09/22 07:07:36;;;;;;;6.42;4.03;;;;;;;15.39;49.07;101871.03;1702117;84;21037;-50
2021/09/22 07:10:06;;;;;;;4.80;4.30;;;;;;;15.40;48.93;101870.13;1702132;84;21043;-50
2021/09/22 07:12:33;;;;;;;5.92;4.37;;;;;;;15.44;48.88;101875.73;1702041;84;21042;-51
2021/09/22 07:15:01;;;;;;;5.75;4.65;;;;;;;15.49;48.73;101868.63;1702552;84;21061;-50
2021/09/22 07:17:30;;;;;;;6.90;4.85;;;;;;;15.53;48.57;101865.03;1701888;84;21038;-50
2021/09/22 07:19:59;;;;;;;8.25;4.15;;;;;;;15.60;48.62;101869.69;1696359;84;21038;-51
2021/09/22 07:22:28;;;;;;;5.58;4.47;;;;;;;15.64;48.47;101866.92;1701809;84;21085;-52
2021/09/22 07:24:55;;;;;;;6.03;4.15;;;;;;;15.71;48.27;101872.45;1702197;84;21046;-51
2021/09/22 07:27:22;;;;;;;5.62;4.62;;;;;;;15.78;48.13;101870.53;1695036;84;21093;-48
2021/09/22 07:29:49;;;;;;;8.25;3.87;;;;;;;15.85;47.99;101862.89;1689749;85;21043;-50
2021/09/22 07:32:17;;;;;;;4.97;3.70;;;;;;;15.94;47.78;101860.91;1689866;85;21491;-51
2021/09/22 07:34:44;;;;;;;4.37;3.98;;;;;;;16.03;47.47;101863.28;1701415;83;21067;-50
2021/09/22 07:37:12;;;;;;;5.47;3.80;;;;;;;16.10;47.33;101860.91;1703598;83;21544;-51
2021/09/22 07:39:40;;;;;;;3.80;3.40;;;;;;;16.17;47.07;101864.23;1714273;83;21030;-49
2021/09/22 07:42:12;;;;;;;4.53;3.47;;;;;;;16.22;46.59;101865.83;1708673;83;21082;-51
2021/09/22 07:44:42;;;;;;;3.02;2.52;;;;;;;16.27;46.81;101863.08;1730012;82;21035;-53
2021/09/22 07:47:10;;;;;;;3.42;2.62;;;;;;;16.30;46.38;101861.22;1729230;82;21085;-51
2021/09/22 07:49:37;;;;;;;4.53;2.47;;;;;;;16.30;45.88;101858.59;1703984;83;21199;-50
2021/09/22 07:52:06;;;;;;;2.90;2.62;;;;;;;16.29;46.31;101851.63;1714182;84;21046;-50
2021/09/22 07:54:34;;;;;;;5.00;2.30;;;;;;;16.29;45.80;101842.44;1737265;82;21530;-50
2021/09/22 07:57:03;;;;;;;2.45;2.20;;;;;;;16.29;45.60;101841.13;1726729;82;21082;-51
2021/09/22 07:59:30;;;;;;;3.62;2.30;;;;;;;16.29;45.12;101830.63;1729768;82;21046;-51
2021/09/22 08:01:58;;;;;;;3.77;2.60;;;;;;;16.30;44.98;101834.95;1703351;83;21574;-50
2021/09/22 08:04:25;;;;;;;3.62;2.77;;;;;;;16.33;44.90;101846.28;1714308;84;20991;-51
2021/09/22 08:06:53;;;;;;;3.75;2.50;;;;;;;16.35;44.67;101848.41;1705470;83;21027;-51
2021/09/22 08:09:20;;;;;;;3.02;2.47;;;;;;;16.35;44.65;101843.16;1706223;83;21010;-50
2021/09/22 08:11:48;;;;;;;4.22;3.22;;;;;;;16.36;45.17;101837.02;1714088;84;21038;-50
2021/09/22 08:14:16;;;;;;;4.20;3.27;;;;;;;16.35;45.19;101834.83;1712134;83;21057;-51
2021/09/22 08:19:13;;;;;;;4.55;2.77;;;;;;;16.36;45.27;101830.45;1653971;85;21165;-50
2021/09/22 08:21:40;;;;;;;3.22;2.40;;;;;;;16.36;45.44;101822.56;1715006;83;21032;-48
2021/09/22 08:24:09;;;;;;;3.58;2.50;;;;;;;16.39;45.14;101817.20;1715396;83;21019;-50
2021/09/22 08:26:36;;;;;;;4.47;3.12;;;;;;;16.42;45.59;101811.88;1715001;83;21230;-49
2021/09/22 08:29:03;;;;;;;4.08;2.40;;;;;;;16.45;45.03;101803.89;1713029;83;21582;-50
2021/09/22 08:31:30;;;;;;;3.15;2.45;;;;;;;16.50;45.04;101804.67;1713416;83;21059;-50
2021/09/22 08:33:58;;;;;;;2.70;2.50;;;;;;;16.52;44.59;101796.28;1713296;83;21023;-51
2021/09/22 08:36:25;;;;;;;3.02;2.50;;;;;;;16.53;44.78;101799.30;1713201;84;21491;-48
2021/09/22 08:38:52;;;;;;;6.00;2.87;;;;;;;16.55;45.54;101792.27;1713366;83;21091;-52
2021/09/22 08:41:19;;;;;;;2.30;2.10;;;;;;;16.59;45.13;101788.16;1713588;83;21072;-48
2021/09/22 08:43:47;;;;;;;2.98;2.65;;;;;;;16.64;44.65;101782.33;1713283;83;21039;-50
2021/09/22 08:46:19;;;;;;;2.50;2.17;;;;;;;16.70;44.29;101781.27;1713623;83;21020;-51
2021/09/22 08:48:46;;;;;;;4.03;2.47;;;;;;;16.77;44.36;101792.02;1701760;83;21570;-49
2021/09/22 08:51:15;;;;;;;3.80;2.20;;;;;;;16.80;44.74;101782.70;1713540;83;21161;-49
2021/09/22 08:53:42;;;;;;;3.87;2.40;;;;;;;16.84;45.24;101781.70;1713489;84;21040;-48
2021/09/22 08:56:11;;;;;;;2.33;2.12;;;;;;;16.85;44.90;101780.81;1713620;83;21562;-48
2021/09/22 08:58:39;;;;;;;3.85;2.85;;;;;;;16.86;45.08;101777.25;1713493;83;21071;-49
2021/09/22 09:01:14;;;;;;;5.42;2.12;;;;;;;16.88;45.60;101776.30;1713513;83;21067;-46
2021/09/22 09:03:44;;;;;;;3.22;2.22;;;;;;;16.91;45.12;101774.91;1713409;83;21133;-50
2021/09/22 09:06:33;;;;;;;2.55;2.00;;;;;;;16.92;44.53;101775.30;1713378;83;21036;-46
2021/09/22 09:08:58;;;;;;;2.45;1.72;;;;;;;16.94;44.62;101771.30;1710282;83;21588;-49
2021/09/22 09:11:34;;;;;;;1.57;1.47;;;;;;;16.99;44.66;101769.39;1713579;83;21034;-50
2021/09/22 09:14:05;;;;;;;4.15;1.77;;;;;;;17.02;44.11;101765.37;1691804;83;21067;-50
2021/09/22 09:16:45;;;;;;;1.40;1.30;;;;;;;17.06;43.69;101764.36;1690132;84;21034;-49
2021/09/22 09:19:22;;;;;;;1.77;1.67;;;;;;;17.10;43.56;101759.41;1700467;84;21032;-52
2021/09/22 09:22:06;;;;;;;1.72;1.40;;;;;;;17.14;43.69;101754.89;1729886;83;21111;-50
2021/09/22 09:24:45;;;;;;;1.92;1.50;;;;;;;17.18;43.76;101763.95;1621006;88;21110;-52
2021/09/22 09:27:30;;;;;;;4.65;1.82;;;;;;;17.19;43.57;101756.45;1613920;88;21153;-51
2021/09/22 09:29:56;;;;;;;2.52;1.85;;;;;;;17.19;43.65;101749.88;1616498;87;21074;-50
2021/09/22 09:32:26;;;;;;;1.85;1.47;;;;;;;17.19;43.66;101756.45;1616138;88;21129;-50
2021/09/22 09:35:12;;;;;;;4.92;2.22;;;;;;;17.18;43.73;101753.44;1616394;88;21034;-50
2021/09/22 09:37:47;;;;;;;1.72;1.50;;;;;;;17.19;43.86;101754.30;1625184;87;21060;-50
2021/09/22 09:40:35;;;;;;;3.15;1.80;;;;;;;17.16;43.68;101757.89;1626702;86;21087;-50
2021/09/22 09:43:06;;;;;;;1.60;1.50;;;;;;;17.17;43.93;101759.59;1627615;87;21117;-50
2021/09/22 09:45:42;;;;;;;1.40;1.30;;;;;;;17.18;43.84;101753.44;1604879;89;21213;-51
2021/09/22 09:48:18;;;;;;;4.55;1.60;;;;;;;17.18;43.73;101742.91;1579625;90;21651;-48
2021/09/22 09:50:52;;;;;;;3.52;1.50;;;;;;;17.21;43.23;101745.42;1578881;90;21607;-51
2021/09/22 09:53:30;;;;;;;2.00;1.70;;;;;;;17.23;42.83;101747.55;1577929;90;21089;-51
2021/09/22 09:56:00;;;;;;;1.82;1.47;;;;;;;17.25;42.97;101741.78;1586592;90;21068;-48
2021/09/22 09:58:44;;;;;;;3.47;1.70;;;;;;;17.26;43.07;101743.52;1581831;90;21047;-47
2021/09/22 10:01:11;;;;;;;2.35;1.80;;;;;;;17.28;43.05;101749.58;1581639;90;21085;-47
2021/09/22 10:03:38;;;;;;;5.12;1.95;;;;;;;17.32;43.35;101736.73;1581868;90;21125;-49
2021/09/22 10:06:06;;;;;;;2.90;1.70;;;;;;;17.32;43.34;101740.67;1580059;90;21087;-47
2021/09/22 10:08:33;;;;;;;3.40;1.60;;;;;;;17.33;43.19;101743.69;1580384;90;21107;-48
2021/09/22 10:11:03;;;;;;;2.62;1.70;;;;;;;17.36;43.12;101742.29;1584289;90;21548;-48
2021/09/22 10:13:32;;;;;;;3.05;1.87;;;;;;;17.40;43.24;101740.41;1586442;90;21084;-46
2021/09/22 10:15:59;;;;;;;4.95;1.80;;;;;;;17.41;42.74;101733.80;1589169;90;21577;-51
2021/09/22 10:18:26;;;;;;;3.77;1.85;;;;;;;17.42;43.14;101742.08;1587921;90;21513;-51
2021/09/22 10:20:53;;;;;;;2.15;1.57;;;;;;;17.44;43.13;101733.67;1586870;90;21060;-50
2021/09/22 10:23:22;;;;;;;3.25;1.72;;;;;;;17.46;42.72;101733.61;1568803;91;21117;-51
2021/09/22 10:25:49;;;;;;;3.17;1.65;;;;;;;17.47;42.78;101732.27;1548514;91;21132;-50
2021/09/22 10:28:41;;;;;;;1.67;1.55;;;;;;;17.50;42.90;101729.55;1564855;91;21038;-50
2021/09/22 10:31:25;;;;;;;;;;;;;;;17.55;43.03;101725.00;1526995;93;21681;-49
2021/09/22 10:33:52;;;;;;;5.58;1.90;;;;;;;17.58;42.57;101726.63;1535463;93;20111;-49
2021/09/22 10:36:43;;;;;;;1.60;1.27;;;;;;;17.59;42.54;101717.84;1535539;93;21617;-49
2021/09/22 10:39:28;;;;;;;1.85;1.67;;;;;;;17.61;42.57;101714.25;1569610;91;21149;-49
2021/09/22 10:41:56;;;;;;;2.30;1.80;;;;;;;17.64;42.33;101717.23;1582277;88;21034;-50
2021/09/22 10:44:35;;;;;;;1.98;1.82;;;;;;;17.64;42.46;101715.92;1633434;87;21071;-50
2021/09/22 10:47:32;;;;;;;2.30;1.85;;;;;;;17.64;42.56;101706.23;1633327;87;21539;-49
2021/09/22 10:50:00;;;;;;;1.70;1.50;;;;;;;17.63;42.70;101710.23;1590586;90;21085;-49
2021/09/22 10:52:39;;;;;;;2.33;1.77;;;;;;;17.61;42.79;101706.36;1603252;89;21470;-50
2021/09/22 10:55:15;;;;;;;2.30;2.10;;;;;;;17.62;42.70;101700.64;1585578;90;21068;-50
2021/09/22 10:57:47;;;;;;;2.52;1.60;;;;;;;17.62;42.91;101706.73;1566706;90;21113;-49
2021/09/22 11:00:18;;;;;;;1.90;1.65;;;;;;;17.64;42.89;101706.23;1548574;92;21040;-50
2021/09/22 11:02:48;;;;;;;2.83;2.15;;;;;;;17.64;43.18;101704.91;1548681;92;21084;-50
2021/09/22 11:05:31;;;;;;;2.80;1.98;;;;;;;17.66;43.07;101703.56;1572786;90;21059;-50
2021/09/22 11:08:05;;;;;;;2.17;1.98;;;;;;;17.67;43.06;101708.77;1573430;90;21633;-49
2021/09/22 11:10:53;;;;;;;3.17;2.30;;;;;;;17.67;42.97;101700.87;1595841;88;21053;-48
2021/09/22 11:13:27;;;;;;;3.22;2.17;;;;;;;17.69;42.84;101705.63;1583520;88;21051;-50
2021/09/22 11:16:07;;;;;;;2.22;1.95;;;;;;;17.67;42.82;101699.55;1615374;88;21090;-50
2021/09/22 11:18:41;;;;;;;2.02;1.82;;;;;;;17.69;42.93;101688.52;1603511;89;21069;-50
2021/09/22 11:21:09;;;;;;;2.45;1.70;;;;;;;17.70;43.03;101692.84;1642536;85;21097;-50
2021/09/22 11:23:37;;;;;;;4.15;1.60;;;;;;;17.69;42.73;101696.41;1663526;86;21087;-50
2021/09/22 11:26:07;;;;;;;4.10;1.62;;;;;;;17.70;42.64;101689.38;1679660;85;21003;-50
2021/09/22 11:28:35;;;;;;;1.90;1.45;;;;;;;17.69;42.56;101688.52;1666546;85;21578;-50
2021/09/22 11:31:03;;;;;;;2.40;1.32;;;;;;;17.71;42.62;101684.05;1674092;85;21014;-49
2021/09/22 11:33:30;;;;;;;3.95;1.42;;;;;;;17.71;41.83;101677.47;1674089;85;21129;-50
2021/09/22 11:36:04;;;;;;;4.85;1.70;;;;;;;17.72;41.83;101680.48;1720311;83;21077;-49
2021/09/22 11:38:35;;;;;;;1.40;1.30;;;;;;;17.74;41.82;101678.66;1664308;86;21070;-53
2021/09/22 11:41:03;;;;;;;2.77;1.30;;;;;;;17.75;41.46;101680.39;1667480;86;21106;-47
2021/09/22 11:43:30;;;;;;;1.55;1.35;;;;;;;17.76;41.48;101682.09;1667844;85;21050;-50
2021/09/22 11:46:01;;;;;;;1.60;1.27;;;;;;;17.79;41.64;101673.23;1660066;86;21078;-50
2021/09/22 11:48:38;;;;;;;3.15;1.30;;;;;;;17.83;41.82;101681.41;1668292;86;21058;-50